createdAt,value
2022-11-13T00:00:40.494Z,32
2022-11-13T00:01:40.491Z,35
2022-11-13T00:02:40.514Z,36
2022-11-13T00:04:40.491Z,32
2022-11-13T00:05:40.501Z,31
2022-11-13T00:06:40.591Z,33
2022-11-13T00:07:40.609Z,39
2022-11-13T00:09:40.491Z,34
2022-11-13T00:10:40.512Z,33
2022-11-13T00:11:40.489Z,37
2022-11-13T00:12:40.497Z,36
2022-11-13T00:13:40.496Z,34
2022-11-13T00:14:40.530Z,35
2022-11-13T00:15:40.531Z,32
2022-11-13T00:17:40.495Z,34
2022-11-13T00:18:40.491Z,35
2022-11-13T00:19:40.496Z,36
2022-11-13T00:20:40.491Z,36
2022-11-13T00:22:40.529Z,36
2022-11-13T00:23:40.507Z,34
2022-11-13T00:25:40.492Z,35
2022-11-13T00:26:40.508Z,33
2022-11-13T00:27:40.498Z,34
2022-11-13T00:28:40.491Z,32
2022-11-13T00:30:40.509Z,33
2022-11-13T00:31:40.490Z,32
2022-11-13T00:32:40.500Z,34
2022-11-13T00:34:47.628Z,33
2022-11-13T00:35:40.506Z,37
2022-11-13T00:36:40.507Z,36
2022-11-13T00:37:40.506Z,33
2022-11-13T00:38:40.624Z,34
2022-11-13T00:39:40.507Z,34
2022-11-13T00:41:40.499Z,33
2022-11-13T00:42:40.503Z,34
2022-11-13T00:43:40.519Z,34
2022-11-13T00:44:40.540Z,38
2022-11-13T00:46:40.502Z,37
2022-11-13T00:47:40.502Z,38
2022-11-13T00:48:40.503Z,39
2022-11-13T00:51:40.514Z,36
2022-11-13T00:52:40.498Z,36
2022-11-13T00:53:40.493Z,37
2022-11-13T00:54:40.502Z,36
2022-11-13T00:56:40.512Z,39
2022-11-13T00:57:40.547Z,38
2022-11-13T00:58:40.502Z,37
2022-11-13T00:59:40.498Z,37
2022-11-13T01:00:40.511Z,36
2022-11-13T01:01:40.601Z,39
2022-11-13T01:02:40.528Z,35
2022-11-13T01:03:40.502Z,35
2022-11-13T01:04:40.504Z,36
2022-11-13T01:05:40.987Z,38
2022-11-13T01:08:40.501Z,39
2022-11-13T01:09:40.534Z,38
2022-11-13T01:10:40.509Z,33
2022-11-13T01:12:40.502Z,43
2022-11-13T01:13:40.508Z,39
2022-11-13T01:14:40.508Z,37
2022-11-13T01:15:40.510Z,41
2022-11-13T01:16:40.519Z,40
2022-11-13T01:17:40.517Z,34
2022-11-13T01:18:40.509Z,37
2022-11-13T01:20:40.529Z,34
2022-11-13T01:21:40.508Z,35
2022-11-13T01:22:40.507Z,36
2022-11-13T01:23:40.505Z,37
2022-11-13T01:25:40.516Z,38
2022-11-13T01:26:40.513Z,37
2022-11-13T01:28:40.514Z,38
2022-11-13T01:29:40.518Z,38
2022-11-13T01:30:40.521Z,32
2022-11-13T01:31:40.503Z,36
2022-11-13T01:33:40.517Z,35
2022-11-13T01:34:40.516Z,33
2022-11-13T01:35:40.507Z,33
2022-11-13T01:38:40.519Z,31
2022-11-13T01:39:40.508Z,31
2022-11-13T01:40:40.634Z,33
2022-11-13T01:41:40.514Z,36
2022-11-13T01:43:40.514Z,28
2022-11-13T01:44:40.509Z,34
2022-11-13T01:45:40.519Z,27
2022-11-13T01:46:40.535Z,28
2022-11-13T01:47:40.519Z,30
2022-11-13T01:48:40.512Z,31
2022-11-13T01:49:40.518Z,33
2022-11-13T01:50:40.517Z,29
2022-11-13T01:51:40.510Z,29
2022-11-13T01:52:40.518Z,30
2022-11-13T01:53:40.510Z,28
2022-11-13T01:54:40.514Z,29
2022-11-13T01:55:40.532Z,33
2022-11-13T01:56:40.528Z,32
2022-11-13T01:57:40.520Z,31
2022-11-13T01:59:40.512Z,32
2022-11-13T02:00:40.522Z,31
2022-11-13T02:02:40.518Z,29
2022-11-13T02:04:40.533Z,29
2022-11-13T02:05:40.517Z,29
2022-11-13T02:07:40.520Z,35
2022-11-13T02:08:40.521Z,30
2022-11-13T02:09:40.522Z,29
2022-11-13T02:10:40.540Z,31
2022-11-13T02:11:40.648Z,30
2022-11-13T02:12:40.517Z,28
2022-11-13T02:13:40.517Z,33
2022-11-13T02:14:40.541Z,29
2022-11-13T02:15:40.522Z,29
2022-11-13T02:17:40.524Z,28
2022-11-13T02:18:40.524Z,27
2022-11-13T02:19:40.523Z,30
2022-11-13T02:20:40.534Z,28
2022-11-13T02:22:40.518Z,26
2022-11-13T02:23:40.514Z,26
2022-11-13T02:25:40.523Z,28
2022-11-13T02:26:42.833Z,25
2022-11-13T02:27:40.522Z,27
2022-11-13T02:28:40.520Z,27
2022-11-13T02:29:40.524Z,32
2022-11-13T02:30:40.527Z,29
2022-11-13T02:31:40.519Z,26
2022-11-13T02:32:40.521Z,27
2022-11-13T02:33:40.525Z,31
2022-11-13T02:34:40.528Z,24
2022-11-13T02:35:40.535Z,29
2022-11-13T02:36:40.528Z,26
2022-11-13T02:37:40.520Z,28
2022-11-13T02:38:40.528Z,26
2022-11-13T02:39:40.519Z,27
2022-11-13T02:41:40.531Z,27
2022-11-13T02:42:40.646Z,26
2022-11-13T02:43:40.522Z,26
2022-11-13T02:44:40.530Z,23
2022-11-13T02:46:40.528Z,22
2022-11-13T02:47:40.527Z,27
2022-11-13T02:48:40.532Z,27
2022-11-13T02:49:40.532Z,24
2022-11-13T02:50:40.521Z,26
2022-11-13T02:52:40.570Z,30
2022-11-13T02:53:40.532Z,24
2022-11-13T02:54:40.523Z,27
2022-11-13T02:57:40.522Z,23
2022-11-13T02:58:40.531Z,25
2022-11-13T02:59:40.531Z,27
2022-11-13T03:00:40.538Z,26
2022-11-13T03:01:40.591Z,25
2022-11-13T03:02:40.521Z,25
2022-11-13T03:03:56.975Z,23
2022-11-13T03:05:10.393Z,26
2022-11-13T03:05:40.527Z,24
2022-11-13T03:06:40.627Z,28
2022-11-13T03:07:40.532Z,26
2022-11-13T03:08:40.713Z,26
2022-11-13T03:09:40.527Z,27
2022-11-13T03:10:40.531Z,24
2022-11-13T03:11:40.539Z,27
2022-11-13T03:13:40.651Z,25
2022-11-13T03:14:40.531Z,27
2022-11-13T03:15:40.533Z,26
2022-11-13T03:18:40.530Z,24
2022-11-13T03:19:40.542Z,26
2022-11-13T03:20:40.541Z,24
2022-11-13T03:22:40.532Z,26
2022-11-13T03:23:40.537Z,24
2022-11-13T03:24:40.534Z,23
2022-11-13T03:25:40.541Z,24
2022-11-13T03:26:40.539Z,23
2022-11-13T03:27:40.547Z,22
2022-11-13T03:28:40.537Z,24
2022-11-13T03:29:40.547Z,20
2022-11-13T03:30:40.536Z,24
2022-11-13T03:31:40.540Z,23
2022-11-13T03:32:40.535Z,23
2022-11-13T03:34:40.544Z,23
2022-11-13T03:35:45.456Z,22
2022-11-13T03:36:40.528Z,22
2022-11-13T03:39:40.546Z,23
2022-11-13T03:40:40.552Z,20
2022-11-13T03:41:40.536Z,21
2022-11-13T03:43:40.548Z,23
2022-11-13T03:44:40.650Z,19
2022-11-13T03:45:40.540Z,21
2022-11-13T03:46:40.540Z,20
2022-11-13T03:47:40.534Z,20
2022-11-13T03:48:40.540Z,22
2022-11-13T03:50:45.339Z,21
2022-11-13T03:51:40.554Z,19
2022-11-13T03:52:40.545Z,21
2022-11-13T03:53:40.556Z,24
2022-11-13T03:54:40.544Z,20
2022-11-13T03:55:40.554Z,19
2022-11-13T03:56:40.548Z,24
2022-11-13T03:57:40.569Z,19
2022-11-13T03:59:40.550Z,19
2022-11-13T04:00:40.544Z,21
2022-11-13T04:01:40.607Z,20
2022-11-13T04:02:40.547Z,21
2022-11-13T04:04:40.563Z,21
2022-11-13T04:05:40.548Z,22
2022-11-13T04:06:40.659Z,16
2022-11-13T04:07:40.548Z,20
2022-11-13T04:08:40.544Z,20
2022-11-13T04:10:40.559Z,19
2022-11-13T04:11:40.544Z,20
2022-11-13T04:12:40.544Z,20
2022-11-13T04:13:40.543Z,22
2022-11-13T04:15:40.665Z,21
2022-11-13T04:17:40.557Z,18
2022-11-13T04:18:40.549Z,20
2022-11-13T04:19:40.561Z,19
2022-11-13T04:20:40.551Z,17
2022-11-13T04:22:40.574Z,20
2022-11-13T04:23:40.560Z,19
2022-11-13T04:24:40.554Z,17
2022-11-13T04:25:40.553Z,20
2022-11-13T04:26:40.552Z,17
2022-11-13T04:27:40.542Z,18
2022-11-13T04:28:40.558Z,19
2022-11-13T04:29:40.560Z,17
2022-11-13T04:31:40.558Z,17
2022-11-13T04:32:40.552Z,16
2022-11-13T04:33:40.556Z,18
2022-11-13T04:34:40.555Z,18
2022-11-13T04:35:40.549Z,16
2022-11-13T04:36:40.552Z,18
2022-11-13T04:38:40.554Z,19
2022-11-13T04:39:40.584Z,16
2022-11-13T04:40:40.559Z,19
2022-11-13T04:41:40.552Z,18
2022-11-13T04:43:40.549Z,16
2022-11-13T04:44:40.556Z,17
2022-11-13T04:45:40.554Z,20
2022-11-13T04:47:40.548Z,16
2022-11-13T04:48:40.556Z,17
2022-11-13T04:49:40.569Z,19
2022-11-13T04:50:40.549Z,16
2022-11-13T04:51:40.556Z,21
2022-11-13T04:52:40.557Z,19
2022-11-13T04:53:40.563Z,18
2022-11-13T04:54:40.558Z,22
2022-11-13T04:55:40.556Z,21
2022-11-13T04:57:40.567Z,19
2022-11-13T04:58:40.615Z,18
2022-11-13T04:59:40.554Z,23
2022-11-13T05:00:40.566Z,20
2022-11-13T05:01:40.581Z,18
2022-11-13T05:02:40.555Z,19
2022-11-13T05:03:40.551Z,20
2022-11-13T05:04:40.557Z,22
2022-11-13T05:05:40.560Z,19
2022-11-13T05:06:40.628Z,20
2022-11-13T05:07:40.554Z,19
2022-11-13T05:08:40.565Z,18
2022-11-13T05:09:40.559Z,19
2022-11-13T05:10:40.562Z,20
2022-11-13T05:11:40.557Z,21
2022-11-13T05:12:40.564Z,20
2022-11-13T05:13:40.565Z,19
2022-11-13T05:14:40.564Z,17
2022-11-13T05:15:40.573Z,17
2022-11-13T05:16:40.558Z,18
2022-11-13T05:17:40.675Z,17
2022-11-13T05:18:40.559Z,18
2022-11-13T05:20:40.567Z,17
2022-11-13T05:21:40.558Z,20
2022-11-13T05:22:40.574Z,20
2022-11-13T05:23:40.559Z,18
2022-11-13T05:25:40.559Z,16
2022-11-13T05:26:40.576Z,16
2022-11-13T05:28:40.562Z,18
2022-11-13T05:29:40.559Z,19
2022-11-13T05:30:40.558Z,19
2022-11-13T05:31:40.561Z,19
2022-11-13T05:32:40.556Z,21
2022-11-13T05:33:40.568Z,20
2022-11-13T05:34:40.561Z,19
2022-11-13T05:35:40.557Z,17
2022-11-13T05:36:40.558Z,21
2022-11-13T05:38:40.578Z,18
2022-11-13T05:39:40.575Z,18
2022-11-13T05:40:40.568Z,21
2022-11-13T05:41:40.560Z,15
2022-11-13T05:43:40.574Z,17
2022-11-13T05:44:40.575Z,17
2022-11-13T05:45:40.566Z,19
2022-11-13T05:46:40.579Z,18
2022-11-13T05:47:40.565Z,19
2022-11-13T05:49:40.578Z,20
2022-11-13T05:50:40.602Z,17
2022-11-13T05:51:40.574Z,20
2022-11-13T05:52:40.567Z,20
2022-11-13T06:01:40.664Z,17
2022-11-13T06:02:40.578Z,18
2022-11-13T06:04:40.569Z,19
2022-11-13T06:05:40.581Z,17
2022-11-13T06:06:40.633Z,18
2022-11-13T06:07:40.587Z,20
2022-11-13T06:08:40.569Z,19
2022-11-13T06:10:40.577Z,21
2022-11-13T06:11:40.587Z,17
2022-11-13T06:12:40.576Z,18
2022-11-13T06:13:40.571Z,19
2022-11-13T06:15:40.577Z,19
2022-11-13T06:17:40.565Z,12
2022-11-13T06:18:40.734Z,11
2022-11-13T06:19:40.743Z,13
2022-11-13T06:20:40.577Z,14
2022-11-13T06:22:40.572Z,14
2022-11-13T06:23:40.577Z,17
2022-11-13T06:24:40.577Z,16
2022-11-13T06:25:40.576Z,17
2022-11-13T06:26:40.574Z,16
2022-11-13T06:27:40.579Z,17
2022-11-13T06:29:40.578Z,17
2022-11-13T06:31:40.577Z,17
2022-11-13T06:32:40.583Z,15
2022-11-13T06:33:40.577Z,18
2022-11-13T06:34:40.577Z,15
2022-11-13T06:36:40.585Z,17
2022-11-13T06:38:40.693Z,17
2022-11-13T06:39:40.592Z,16
2022-11-13T06:40:40.577Z,17
2022-11-13T06:41:40.569Z,15
2022-11-13T06:43:40.575Z,15
2022-11-13T06:44:40.580Z,17
2022-11-13T06:45:40.576Z,17
2022-11-13T06:46:40.590Z,17
2022-11-13T06:47:40.602Z,18
2022-11-13T06:48:40.635Z,18
2022-11-13T06:49:40.584Z,16
2022-11-13T06:50:44.444Z,13
2022-11-13T06:52:40.579Z,14
2022-11-13T06:53:40.594Z,16
2022-11-13T06:54:40.615Z,13
2022-11-13T06:55:40.578Z,13
2022-11-13T06:57:40.582Z,15
2022-11-13T06:59:40.585Z,16
2022-11-13T07:00:40.898Z,17
2022-11-13T07:01:40.645Z,14
2022-11-13T07:03:40.590Z,16
2022-11-13T07:04:40.595Z,14
2022-11-13T07:05:40.603Z,14
2022-11-13T07:06:40.761Z,17
2022-11-13T07:07:40.588Z,15
2022-11-13T07:08:40.584Z,15
2022-11-13T07:09:40.597Z,15
2022-11-13T07:10:40.594Z,15
2022-11-13T07:11:40.872Z,15
2022-11-13T07:12:40.589Z,18
2022-11-13T07:13:40.604Z,18
2022-11-13T07:14:40.594Z,14
2022-11-13T07:15:40.589Z,14
2022-11-13T07:17:07.462Z,16
2022-11-13T07:17:40.592Z,17
2022-11-13T07:18:40.580Z,16
2022-11-13T07:20:40.588Z,14
2022-11-13T07:21:40.729Z,17
2022-11-13T07:22:40.589Z,15
2022-11-13T07:23:40.580Z,16
2022-11-13T07:24:40.601Z,19
2022-11-13T07:25:40.587Z,15
2022-11-13T07:26:40.589Z,16
2022-11-13T07:27:40.594Z,19
2022-11-13T07:29:40.605Z,18
2022-11-13T07:30:40.591Z,16
2022-11-13T07:31:40.599Z,19
2022-11-13T07:32:40.588Z,17
2022-11-13T07:33:40.594Z,17
2022-11-13T07:34:40.600Z,19
2022-11-13T07:35:40.596Z,17
2022-11-13T07:36:40.596Z,18
2022-11-13T07:38:40.603Z,18
2022-11-13T07:39:40.599Z,19
2022-11-13T07:40:40.591Z,20
2022-11-13T07:43:40.594Z,21
2022-11-13T07:45:40.606Z,22
2022-11-13T07:46:40.602Z,21
2022-11-13T07:47:40.591Z,18
2022-11-13T07:48:40.599Z,20
2022-11-13T07:50:40.594Z,22
2022-11-13T07:51:40.588Z,18
2022-11-13T07:52:40.733Z,21
2022-11-13T07:53:40.601Z,19
2022-11-13T07:54:40.607Z,17
2022-11-13T07:55:40.604Z,18
2022-11-13T07:56:40.597Z,18
2022-11-13T07:57:40.606Z,16
2022-11-13T07:59:40.599Z,18
2022-11-13T08:00:40.687Z,17
2022-11-13T08:01:40.595Z,16
2022-11-13T08:02:40.596Z,17
2022-11-13T08:04:40.599Z,19
2022-11-13T08:05:40.610Z,18
2022-11-13T08:06:40.645Z,15
2022-11-13T08:07:40.604Z,15
2022-11-13T08:08:40.607Z,16
2022-11-13T08:09:40.597Z,16
2022-11-13T08:10:40.608Z,15
2022-11-13T08:12:40.632Z,19
2022-11-13T08:13:40.602Z,17
2022-11-13T08:14:40.597Z,17
2022-11-13T08:15:40.608Z,16
2022-11-13T08:17:40.609Z,17
2022-11-13T08:18:40.612Z,17
2022-11-13T08:19:40.610Z,17
2022-11-13T08:20:40.612Z,14
2022-11-13T08:22:40.613Z,17
2022-11-13T08:23:40.721Z,17
2022-11-13T08:24:40.624Z,17
2022-11-13T08:25:40.614Z,15
2022-11-13T08:26:40.619Z,17
2022-11-13T08:27:40.615Z,17
2022-11-13T08:28:40.618Z,16
2022-11-13T08:29:40.615Z,16
2022-11-13T08:30:40.620Z,17
2022-11-13T08:31:40.628Z,15
2022-11-13T08:33:40.618Z,16
2022-11-13T08:34:40.615Z,15
2022-11-13T08:35:40.617Z,14
2022-11-13T08:36:40.616Z,13
2022-11-13T08:38:40.626Z,14
2022-11-13T08:39:40.634Z,13
2022-11-13T08:40:40.636Z,15
2022-11-13T08:41:40.620Z,16
2022-11-13T08:43:40.614Z,15
2022-11-13T08:44:40.621Z,14
2022-11-13T08:45:40.624Z,14
2022-11-13T08:46:40.620Z,12
2022-11-13T08:47:40.616Z,15
2022-11-13T08:48:40.622Z,15
2022-11-13T08:49:40.622Z,12
2022-11-13T08:50:40.618Z,15
2022-11-13T08:51:40.612Z,15
2022-11-13T08:52:40.633Z,15
2022-11-13T08:53:40.631Z,15
2022-11-13T08:54:40.752Z,18
2022-11-13T08:55:40.631Z,17
2022-11-13T08:56:40.631Z,21
2022-11-13T08:57:40.637Z,17
2022-11-13T08:58:40.650Z,20
2022-11-13T08:59:40.620Z,17
2022-11-13T09:00:40.636Z,15
2022-11-13T09:01:40.639Z,19
2022-11-13T09:02:40.635Z,18
2022-11-13T09:03:40.696Z,19
2022-11-13T09:05:40.633Z,21
2022-11-13T09:06:40.734Z,19
2022-11-13T09:07:40.636Z,19
2022-11-13T09:09:40.663Z,19
2022-11-13T09:10:40.630Z,16
2022-11-13T09:12:40.636Z,19
2022-11-13T09:13:44.983Z,18
2022-11-13T09:14:40.631Z,22
2022-11-13T09:15:40.630Z,17
2022-11-13T09:16:40.628Z,22
2022-11-13T09:17:40.636Z,21
2022-11-13T09:20:40.639Z,25
2022-11-13T09:21:40.634Z,22
2022-11-13T09:22:40.626Z,18
2022-11-13T09:25:40.754Z,19
2022-11-13T09:26:40.642Z,18
2022-11-13T09:27:40.637Z,19
2022-11-13T09:28:40.660Z,19
2022-11-13T09:29:40.641Z,19
2022-11-13T09:30:40.641Z,18
2022-11-13T09:31:40.634Z,19
2022-11-13T09:32:40.634Z,16
2022-11-13T09:33:40.636Z,17
2022-11-13T09:34:40.634Z,16
2022-11-13T09:35:40.635Z,15
2022-11-13T09:36:40.634Z,14
2022-11-13T09:38:40.641Z,15
2022-11-13T09:40:40.643Z,16
2022-11-13T09:41:40.642Z,14
2022-11-13T09:43:40.644Z,17
2022-11-13T09:45:40.643Z,18
2022-11-13T09:46:40.657Z,17
2022-11-13T09:47:40.639Z,16
2022-11-13T09:48:40.642Z,18
2022-11-13T09:49:40.660Z,21
2022-11-13T09:50:40.640Z,21
2022-11-13T09:51:40.648Z,15
2022-11-13T09:52:40.644Z,18
2022-11-13T09:53:40.650Z,18
2022-11-13T09:54:40.643Z,16
2022-11-13T09:55:40.650Z,20
2022-11-13T09:56:40.768Z,17
2022-11-13T09:57:40.646Z,17
2022-11-13T09:59:40.647Z,20
2022-11-13T10:00:40.721Z,20
2022-11-13T10:01:40.648Z,20
2022-11-13T10:02:40.646Z,18
2022-11-13T10:04:40.654Z,19
2022-11-13T10:05:40.651Z,19
2022-11-13T10:06:40.705Z,19
2022-11-13T10:07:40.652Z,20
2022-11-13T10:08:40.651Z,23
2022-11-13T10:09:40.645Z,20
2022-11-13T10:10:40.656Z,21
2022-11-13T10:11:40.663Z,20
2022-11-13T10:12:40.660Z,17
2022-11-13T10:13:40.654Z,17
2022-11-13T10:14:40.661Z,17
2022-11-13T10:15:40.651Z,18
2022-11-13T10:17:40.661Z,17
2022-11-13T10:18:40.651Z,16
2022-11-13T10:19:40.661Z,15
2022-11-13T10:20:40.655Z,18
2022-11-13T10:22:40.680Z,15
2022-11-13T10:23:40.683Z,14
2022-11-13T10:24:40.659Z,13
2022-11-13T10:25:40.659Z,12
2022-11-13T10:26:40.665Z,15
2022-11-13T10:27:40.862Z,12
2022-11-13T10:28:50.428Z,15
2022-11-13T10:29:44.633Z,11
2022-11-13T10:30:40.662Z,14
2022-11-13T10:31:40.685Z,10
2022-11-13T10:32:40.657Z,10
2022-11-13T10:33:40.659Z,12
2022-11-13T10:34:40.654Z,11
2022-11-13T10:35:40.665Z,11
2022-11-13T10:36:40.665Z,9
2022-11-13T10:38:40.664Z,10
2022-11-13T10:39:40.657Z,10
2022-11-13T10:40:40.665Z,9
2022-11-13T10:41:40.661Z,10
2022-11-13T10:43:40.663Z,12
2022-11-13T10:45:40.659Z,12
2022-11-13T10:46:40.658Z,11
2022-11-13T10:48:03.161Z,10
2022-11-13T10:48:40.699Z,12
2022-11-13T10:49:40.666Z,11
2022-11-13T10:50:40.669Z,12
2022-11-13T10:51:40.681Z,11
2022-11-13T10:52:40.667Z,12
2022-11-13T10:53:40.675Z,11
2022-11-13T10:54:40.661Z,13
2022-11-13T10:55:40.671Z,11
2022-11-13T10:56:40.674Z,12
2022-11-13T10:59:40.670Z,12
2022-11-13T11:00:40.716Z,10
2022-11-13T11:01:40.783Z,11
2022-11-13T11:02:40.682Z,10
2022-11-13T11:03:40.680Z,9
2022-11-13T11:04:40.676Z,12
2022-11-13T11:05:40.679Z,11
2022-11-13T11:07:40.745Z,8
2022-11-13T11:08:40.674Z,10
2022-11-13T11:09:40.676Z,7
2022-11-13T11:10:40.674Z,8
2022-11-13T11:11:40.668Z,8
2022-11-13T11:12:40.711Z,8
2022-11-13T11:13:40.675Z,9
2022-11-13T11:14:40.686Z,8
2022-11-13T11:15:40.695Z,8
2022-11-13T11:16:40.696Z,6
2022-11-13T11:17:40.681Z,6
2022-11-13T11:18:40.676Z,8
2022-11-13T11:20:40.687Z,7
2022-11-13T11:21:40.670Z,8
2022-11-13T11:22:40.683Z,8
2022-11-13T11:23:40.673Z,8
2022-11-13T11:24:40.684Z,7
2022-11-13T11:25:40.680Z,6
2022-11-13T11:26:40.684Z,6
2022-11-13T11:27:40.703Z,9
2022-11-13T11:28:40.684Z,7
2022-11-13T11:29:40.806Z,7
2022-11-13T11:30:40.698Z,8
2022-11-13T11:31:40.709Z,6
2022-11-13T11:32:40.694Z,9
2022-11-13T11:33:40.699Z,8
2022-11-13T11:34:40.683Z,7
2022-11-13T11:35:40.680Z,7
2022-11-13T11:36:40.686Z,7
2022-11-13T11:38:40.748Z,9
2022-11-13T11:39:40.677Z,8
2022-11-13T11:40:40.687Z,6
2022-11-13T11:41:40.686Z,6
2022-11-13T11:43:40.679Z,6
2022-11-13T11:44:40.693Z,6
2022-11-13T11:45:40.683Z,7
2022-11-13T11:47:40.696Z,7
2022-11-13T11:48:40.687Z,8
2022-11-13T11:49:40.686Z,6
2022-11-13T11:50:40.692Z,6
2022-11-13T11:51:40.686Z,6
2022-11-13T11:52:40.689Z,7
2022-11-13T11:53:40.687Z,7
2022-11-13T11:54:40.687Z,6
2022-11-13T11:55:40.694Z,6
2022-11-13T11:57:40.691Z,7
2022-11-13T11:59:40.688Z,8
2022-11-13T12:00:40.819Z,6
2022-11-13T12:01:40.707Z,7
2022-11-13T12:04:40.738Z,8
2022-11-13T12:05:40.784Z,8
2022-11-13T12:06:40.748Z,10
2022-11-13T12:07:40.696Z,10
2022-11-13T12:08:40.716Z,9
2022-11-13T12:09:40.700Z,15
2022-11-13T12:10:40.705Z,10
2022-11-13T12:13:40.697Z,7
2022-11-13T12:14:40.712Z,9
2022-11-13T12:15:40.703Z,9
2022-11-13T12:17:40.716Z,9
2022-11-13T12:18:40.698Z,8
2022-11-13T12:19:40.697Z,7
2022-11-13T12:20:40.698Z,8
2022-11-13T12:22:40.705Z,8
2022-11-13T12:23:40.706Z,8
2022-11-13T12:24:40.704Z,9
2022-11-13T12:25:40.714Z,9
2022-11-13T12:26:40.706Z,8
2022-11-13T12:27:40.711Z,8
2022-11-13T12:29:40.715Z,8
2022-11-13T12:30:40.708Z,7
2022-11-13T12:31:40.828Z,9
2022-11-13T12:32:40.707Z,5
2022-11-13T12:34:40.712Z,7
2022-11-13T12:35:40.731Z,5
2022-11-13T12:36:40.719Z,7
2022-11-13T12:37:40.708Z,5
2022-11-13T12:38:40.713Z,5
2022-11-13T12:39:40.715Z,5
2022-11-13T12:41:40.712Z,6
2022-11-13T12:42:40.747Z,7
2022-11-13T12:43:40.722Z,5
2022-11-13T12:44:40.711Z,6
2022-11-13T12:46:40.713Z,6
2022-11-13T12:47:40.714Z,5
2022-11-13T12:49:40.713Z,5
2022-11-13T12:50:40.710Z,5
2022-11-13T12:51:40.719Z,5
2022-11-13T12:52:40.721Z,5
2022-11-13T12:53:40.714Z,5
2022-11-13T12:54:40.720Z,5
2022-11-13T12:55:40.721Z,5
2022-11-13T12:56:40.723Z,5
2022-11-13T12:57:40.727Z,6
2022-11-13T12:59:40.717Z,6
2022-11-13T13:00:40.713Z,5
2022-11-13T13:01:40.772Z,7
2022-11-13T13:02:40.867Z,4
2022-11-13T13:03:40.718Z,4
2022-11-13T13:04:40.729Z,7
2022-11-13T13:05:40.727Z,5
2022-11-13T13:06:40.767Z,6
2022-11-13T13:07:40.722Z,5
2022-11-13T13:08:40.748Z,6
2022-11-13T13:09:40.730Z,5
2022-11-13T13:10:40.728Z,4
2022-11-13T13:11:40.728Z,7
2022-11-13T13:12:40.729Z,9
2022-11-13T13:13:40.728Z,4
2022-11-13T13:14:40.724Z,5
2022-11-13T13:16:40.733Z,6
2022-11-13T13:17:40.723Z,6
2022-11-13T13:18:40.723Z,6
2022-11-13T13:20:40.722Z,6
2022-11-13T13:21:40.736Z,5
2022-11-13T13:22:40.718Z,5
2022-11-13T13:23:40.731Z,5
2022-11-13T13:26:40.728Z,4
2022-11-13T13:27:40.725Z,6
2022-11-13T13:28:40.740Z,5
2022-11-13T13:29:40.736Z,4
2022-11-13T13:30:40.736Z,8
2022-11-13T13:31:40.738Z,7
2022-11-13T13:32:40.816Z,9
2022-11-13T13:33:40.773Z,6
2022-11-13T13:34:40.733Z,5
2022-11-13T13:35:40.891Z,7
2022-11-13T13:36:40.730Z,5
2022-11-13T13:38:40.729Z,6
2022-11-13T13:40:40.734Z,4
2022-11-13T13:41:40.750Z,5
2022-11-13T13:43:40.736Z,4
2022-11-13T13:44:40.751Z,4
2022-11-13T13:45:40.739Z,5
2022-11-13T13:46:40.735Z,5
2022-11-13T13:47:40.742Z,4
2022-11-13T13:48:40.734Z,4
2022-11-13T13:49:40.733Z,5
2022-11-13T13:50:40.750Z,4
2022-11-13T13:51:40.737Z,5
2022-11-13T13:52:40.730Z,4
2022-11-13T13:53:40.741Z,5
2022-11-13T13:54:40.745Z,4
2022-11-13T13:55:40.739Z,5
2022-11-13T13:56:40.747Z,4
2022-11-13T13:57:40.739Z,4
2022-11-13T13:58:40.749Z,6
2022-11-13T13:59:40.757Z,13
2022-11-13T14:00:59.140Z,6
2022-11-13T14:01:40.800Z,7
2022-11-13T14:02:40.744Z,4
2022-11-13T14:04:40.888Z,6
2022-11-13T14:05:40.743Z,4
2022-11-13T14:06:40.766Z,7
2022-11-13T14:07:40.750Z,18
2022-11-13T14:08:40.745Z,7
2022-11-13T14:09:40.751Z,9
2022-11-13T14:10:40.747Z,10
2022-11-13T14:11:40.750Z,8
2022-11-13T14:12:40.752Z,7
2022-11-13T14:13:40.752Z,6
2022-11-13T14:14:40.762Z,19
2022-11-13T14:17:40.752Z,6
2022-11-13T14:18:40.751Z,7
2022-11-13T14:19:40.759Z,5
2022-11-13T14:20:40.760Z,6
2022-11-13T14:22:40.750Z,4
2022-11-13T14:23:40.752Z,4
2022-11-13T14:24:40.767Z,5
2022-11-13T14:25:40.753Z,4
2022-11-13T14:26:40.756Z,5
2022-11-13T14:27:40.745Z,4
2022-11-13T14:28:40.752Z,4
2022-11-13T14:29:40.763Z,4
2022-11-13T14:31:40.756Z,4
2022-11-13T14:32:45.649Z,5
2022-11-13T14:33:40.766Z,4
2022-11-13T14:34:40.766Z,6
2022-11-13T14:35:40.878Z,11
2022-11-13T14:36:40.786Z,17
2022-11-13T14:37:40.761Z,10
2022-11-13T14:38:40.755Z,8
2022-11-13T14:39:40.760Z,7
2022-11-13T14:41:40.761Z,4
2022-11-13T14:42:40.759Z,4
2022-11-13T14:43:40.760Z,4
2022-11-13T14:44:40.767Z,5
2022-11-13T14:47:40.758Z,5
2022-11-13T14:48:40.757Z,9
2022-11-13T14:49:40.758Z,6
2022-11-13T14:50:40.778Z,7
2022-11-13T14:51:40.752Z,5
2022-11-13T14:52:40.756Z,5
2022-11-13T14:53:40.760Z,18
2022-11-13T14:55:13.656Z,11
2022-11-13T14:55:40.759Z,7
2022-11-13T14:56:40.785Z,5
2022-11-13T14:57:40.770Z,5
2022-11-13T14:59:40.774Z,5
2022-11-13T15:00:40.760Z,6
2022-11-13T15:01:40.779Z,12
2022-11-13T15:02:40.771Z,8
2022-11-13T15:04:41.041Z,6
2022-11-13T15:05:40.758Z,4
2022-11-13T15:06:40.954Z,10
2022-11-13T15:07:40.776Z,7
2022-11-13T15:08:40.774Z,6
2022-11-13T15:09:40.775Z,7
2022-11-13T15:10:40.783Z,5
2022-11-13T15:11:40.761Z,5
2022-11-13T15:12:40.772Z,4
2022-11-13T15:13:40.768Z,5
2022-11-13T15:14:40.771Z,6
2022-11-13T15:15:40.771Z,10
2022-11-13T15:16:40.784Z,5
2022-11-13T15:17:40.775Z,5
2022-11-13T15:18:40.769Z,4
2022-11-13T15:19:40.766Z,6
2022-11-13T15:20:40.782Z,5
2022-11-13T15:21:40.781Z,5
2022-11-13T15:22:40.774Z,6
2022-11-13T15:23:40.775Z,5
2022-11-13T15:25:40.781Z,4
2022-11-13T15:26:40.773Z,5
2022-11-13T15:27:43.372Z,6
2022-11-13T15:29:40.789Z,5
2022-11-13T15:30:40.774Z,5
2022-11-13T15:31:40.778Z,5
2022-11-13T15:34:40.786Z,5
2022-11-13T15:35:40.783Z,8
2022-11-13T15:36:40.804Z,7
2022-11-13T15:39:40.781Z,7
2022-11-13T15:40:40.786Z,6
2022-11-13T15:41:40.783Z,6
2022-11-13T15:44:40.828Z,6
2022-11-13T15:45:44.260Z,4
2022-11-13T15:46:40.797Z,5
2022-11-13T15:47:40.790Z,6
2022-11-13T15:48:40.786Z,4
2022-11-13T15:49:47.179Z,5
2022-11-13T15:50:40.780Z,6
2022-11-13T15:51:40.796Z,7
2022-11-13T15:52:40.790Z,11
2022-11-13T15:53:40.779Z,6
2022-11-13T15:54:40.788Z,5
2022-11-13T15:55:40.794Z,5
2022-11-13T15:56:40.788Z,7
2022-11-13T15:57:40.784Z,6
2022-11-13T15:58:40.791Z,5
2022-11-13T16:00:40.788Z,6
2022-11-13T16:02:40.788Z,5
2022-11-13T16:03:40.797Z,7
2022-11-13T16:05:40.797Z,7
2022-11-13T16:06:40.858Z,8
2022-11-13T16:07:42.325Z,5
2022-11-13T16:08:40.914Z,5
2022-11-13T16:09:40.797Z,5
2022-11-13T16:10:40.797Z,7
2022-11-13T16:11:40.793Z,6
2022-11-13T16:13:40.796Z,6
2022-11-13T16:15:40.792Z,6
2022-11-13T16:17:40.801Z,6
2022-11-13T16:18:40.797Z,6
2022-11-13T16:19:40.799Z,6
2022-11-13T16:22:40.795Z,6
2022-11-13T16:23:40.795Z,6
2022-11-13T16:24:40.801Z,6
2022-11-13T16:26:40.799Z,6
2022-11-13T16:27:40.802Z,6
2022-11-13T16:29:07.134Z,6
2022-11-13T16:29:40.801Z,7
2022-11-13T16:30:40.807Z,6
2022-11-13T16:31:40.803Z,6
2022-11-13T16:33:40.806Z,9
2022-11-13T16:34:40.816Z,5
2022-11-13T16:35:40.802Z,6
2022-11-13T16:36:40.807Z,8
2022-11-13T16:37:40.810Z,6
2022-11-13T16:38:40.808Z,7
2022-11-13T16:39:40.922Z,6
2022-11-13T16:41:40.803Z,7
2022-11-13T16:42:40.807Z,6
2022-11-13T16:43:40.802Z,7
2022-11-13T16:44:40.803Z,7
2022-11-13T16:46:40.808Z,5
2022-11-13T16:47:40.810Z,6
2022-11-13T16:48:40.808Z,6
2022-11-13T16:49:40.812Z,6
2022-11-13T16:51:40.811Z,8
2022-11-13T16:52:40.808Z,7
2022-11-13T16:53:40.811Z,8
2022-11-13T16:54:40.806Z,7
2022-11-13T16:55:40.813Z,7
2022-11-13T16:56:40.813Z,7
2022-11-13T16:57:40.817Z,9
2022-11-13T16:59:40.806Z,7
2022-11-13T17:00:40.814Z,8
2022-11-13T17:01:40.893Z,7
2022-11-13T17:02:40.815Z,8
2022-11-13T17:04:40.810Z,8
2022-11-13T17:05:40.811Z,8
2022-11-13T17:06:40.956Z,9
2022-11-13T17:07:40.818Z,8
2022-11-13T17:08:40.807Z,10
2022-11-13T17:09:40.815Z,10
2022-11-13T17:10:40.937Z,8
2022-11-13T17:11:40.828Z,9
2022-11-13T17:12:40.813Z,12
2022-11-13T17:13:40.811Z,10
2022-11-13T17:14:40.823Z,9
2022-11-13T17:15:40.811Z,9
2022-11-13T17:17:40.806Z,10
2022-11-13T17:18:40.820Z,12
2022-11-13T17:20:40.818Z,10
2022-11-13T17:21:44.203Z,10
2022-11-13T17:22:40.822Z,11
2022-11-13T17:23:40.826Z,15
2022-11-13T17:25:40.823Z,12